Time;durP1;ratioP1;P1;durP2;ratioP2;P2;SDS_P1;SDS_P2;PMS_P1;PMS_P2;Temp;Humidity;BMP_temperature;BMP_pressure;BME280_temperature;BME280_humidity;BME280_pressure;Samples;Min_cycle;Max_cycle;Signal;HPM_P1;HPM_P2
2021/09/15 00:01:59;;;;;;;14.65;11.98;;;18.20;99.90;;;;;;5056234;28;20029;-69
2021/09/15 00:04:25;;;;;;;12.75;10.20;;;18.20;99.90;;;;;;5056213;28;20044;-69
2021/09/15 00:06:50;;;;;;;11.48;10.30;;;18.30;99.90;;;;;;5055886;28;20047;-69
2021/09/15 00:09:16;;;;;;;13.10;10.80;;;18.20;99.90;;;;;;5056091;28;20524;-69
2021/09/15 00:11:41;;;;;;;15.13;11.75;;;18.20;99.90;;;;;;5055788;28;20063;-69
2021/09/15 00:14:07;;;;;;;13.50;11.77;;;18.20;99.90;;;;;;5055296;28;20056;-69
2021/09/15 00:16:32;;;;;;;13.02;11.57;;;18.20;99.90;;;;;;5055707;28;20021;-69
2021/09/15 00:18:58;;;;;;;12.80;11.45;;;18.20;99.90;;;;;;5054116;28;20439;-69
2021/09/15 00:21:24;;;;;;;13.27;11.88;;;18.20;99.90;;;;;;5054075;28;20112;-69
2021/09/15 00:23:49;;;;;;;16.17;12.15;;;18.10;99.90;;;;;;5055813;28;20055;-69
2021/09/15 00:26:15;;;;;;;16.63;12.55;;;18.10;99.90;;;;;;5055798;28;20063;-69
2021/09/15 00:28:40;;;;;;;14.73;11.85;;;18.10;99.90;;;;;;5055736;28;20044;-69
2021/09/15 00:31:06;;;;;;;13.07;11.45;;;18.20;99.90;;;;;;5055689;28;20025;-69
2021/09/15 00:33:31;;;;;;;12.18;10.95;;;18.20;99.90;;;;;;5054407;28;20052;-69
2021/09/15 00:35:57;;;;;;;10.82;9.60;;;18.20;99.90;;;;;;5055564;28;20025;-69
2021/09/15 00:38:22;;;;;;;13.98;11.50;;;18.20;99.90;;;;;;5053769;28;20053;-69
2021/09/15 00:40:48;;;;;;;13.93;11.50;;;18.20;99.90;;;;;;5054930;28;20063;-69
2021/09/15 00:43:13;;;;;;;12.68;10.00;;;18.10;99.90;;;;;;5055456;28;20049;-69
2021/09/15 00:45:39;;;;;;;13.32;10.73;;;18.10;99.90;;;;;;5053966;28;20029;-69
2021/09/15 00:48:05;;;;;;;12.23;10.88;;;18.10;99.90;;;;;;5055377;28;20032;-69
2021/09/15 00:50:30;;;;;;;13.23;10.82;;;18.00;99.90;;;;;;5055328;28;20025;-69
2021/09/15 00:52:56;;;;;;;16.98;11.95;;;18.00;99.90;;;;;;5054997;28;20422;-70
2021/09/15 00:55:21;;;;;;;15.32;11.35;;;18.00;99.90;;;;;;5055160;28;20025;-70
2021/09/15 00:57:47;;;;;;;14.02;11.32;;;18.00;99.90;;;;;;5055161;28;20025;-70
2021/09/15 01:00:13;;;;;;;15.38;11.40;;;17.90;99.90;;;;;;5055114;28;20501;-69
2021/09/15 01:02:39;;;;;;;12.93;11.38;;;17.90;99.90;;;;;;5055065;28;20060;-69
2021/09/15 01:05:05;;;;;;;12.27;10.98;;;17.90;99.90;;;;;;5036628;28;20032;-70
2021/09/15 01:07:32;;;;;;;12.90;11.60;;;17.90;99.90;;;;;;5053597;28;20021;-69
2021/09/15 01:09:58;;;;;;;16.98;11.70;;;17.80;99.90;;;;;;5054384;28;20021;-69
2021/09/15 01:12:24;;;;;;;14.82;12.25;;;17.80;99.90;;;;;;5054939;28;20382;-70
2021/09/15 01:14:49;;;;;;;15.70;11.65;;;17.80;99.90;;;;;;5054140;28;20048;-69
2021/09/15 01:17:15;;;;;;;14.10;12.18;;;17.80;99.90;;;;;;5054551;28;20020;-70
2021/09/15 01:19:40;;;;;;;15.50;12.23;;;17.80;99.90;;;;;;5053635;28;20057;-70
2021/09/15 01:22:06;;;;;;;12.63;11.32;;;17.70;99.90;;;;;;5054694;28;20017;-70
2021/09/15 01:24:32;;;;;;;17.27;12.10;;;17.70;99.90;;;;;;5054145;28;20071;-69
2021/09/15 01:26:59;;;;;;;13.65;11.38;;;17.70;99.90;;;;;;5054618;28;20025;-70
2021/09/15 01:29:27;;;;;;;16.58;11.68;;;17.70;99.90;;;;;;5054031;28;20037;-70
2021/09/15 01:31:59;;;;;;;13.40;12.00;;;17.70;99.90;;;;;;5054584;28;20447;-70
2021/09/15 01:34:26;;;;;;;16.98;13.25;;;17.70;99.90;;;;;;5053000;28;20100;-70
2021/09/15 01:36:51;;;;;;;14.30;11.50;;;17.70;99.90;;;;;;5054482;28;20024;-70
2021/09/15 01:39:17;;;;;;;13.88;11.63;;;17.70;99.90;;;;;;5053034;28;20108;-70
2021/09/15 01:41:43;;;;;;;13.15;11.85;;;17.70;99.90;;;;;;5054378;28;20016;-70
2021/09/15 01:44:08;;;;;;;14.25;11.68;;;17.70;99.90;;;;;;5052123;28;20047;-70
2021/09/15 01:46:34;;;;;;;13.68;12.18;;;17.80;99.90;;;;;;5054319;28;20036;-70
2021/09/15 01:48:59;;;;;;;15.52;12.60;;;17.80;99.90;;;;;;5053998;28;20086;-70
2021/09/15 01:51:25;;;;;;;13.48;12.00;;;17.80;99.90;;;;;;5052494;28;20056;-70
2021/09/15 01:53:50;;;;;;;13.10;11.70;;;17.90;99.90;;;;;;5054123;28;20025;-69
2021/09/15 01:56:16;;;;;;;14.30;12.90;;;17.90;99.90;;;;;;5054158;28;20029;-69
2021/09/15 01:58:41;;;;;;;13.77;12.40;;;17.90;99.90;;;;;;5052695;28;20028;-70
2021/09/15 02:01:07;;;;;;;17.77;12.60;;;17.90;99.90;;;;;;5054102;28;20028;-69
2021/09/15 02:03:32;;;;;;;16.77;12.98;;;17.80;99.90;;;;;;5052546;28;20021;-69
2021/09/15 02:05:58;;;;;;;16.30;12.13;;;17.80;99.90;;;;;;5054020;28;20064;-69
2021/09/15 02:08:24;;;;;;;14.93;12.63;;;17.80;99.90;;;;;;5052570;28;20071;-69
2021/09/15 02:10:49;;;;;;;13.68;12.07;;;17.80;99.90;;;;;;5053972;28;20025;-69
2021/09/15 02:13:15;;;;;;;13.43;11.85;;;17.80;99.90;;;;;;5052204;28;20069;-69
2021/09/15 02:15:40;;;;;;;13.52;12.13;;;17.80;99.90;;;;;;5053921;28;20049;-69
2021/09/15 02:18:06;;;;;;;12.60;11.45;;;17.80;99.90;;;;;;5053916;28;20056;-70
2021/09/15 02:20:31;;;;;;;14.85;12.55;;;17.90;99.90;;;;;;5035527;28;20036;-69
2021/09/15 02:22:57;;;;;;;14.52;12.30;;;17.80;99.90;;;;;;5052608;28;20029;-69
2021/09/15 02:25:22;;;;;;;14.32;12.80;;;17.90;99.90;;;;;;5053885;28;20033;-69
2021/09/15 02:27:48;;;;;;;15.80;12.18;;;17.90;99.90;;;;;;5052014;28;20122;-69
2021/09/15 02:30:14;;;;;;;14.32;12.65;;;17.90;99.90;;;;;;5053799;28;20104;-69
2021/09/15 02:32:39;;;;;;;18.65;13.23;;;17.90;99.90;;;;;;5053739;28;20036;-69
2021/09/15 02:35:05;;;;;;;15.20;12.95;;;17.90;99.90;;;;;;5052519;28;20493;-70
2021/09/15 02:37:31;;;;;;;17.65;15.20;;;18.00;99.90;;;;;;5053450;28;20086;-69
2021/09/15 02:39:56;;;;;;;17.92;14.35;;;18.00;99.90;;;;;;5053670;28;20071;-69
2021/09/15 02:42:22;;;;;;;15.00;13.00;;;18.10;99.90;;;;;;5053696;28;20040;-69
2021/09/15 02:44:48;;;;;;;13.13;11.73;;;18.10;99.90;;;;;;5053668;28;20021;-69
2021/09/15 02:47:13;;;;;;;16.00;13.05;;;18.10;99.90;;;;;;5052495;28;20112;-70
2021/09/15 02:49:40;;;;;;;15.93;12.75;;;18.10;99.90;;;;;;5052460;28;20028;-69
2021/09/15 02:52:05;;;;;;;17.48;13.18;;;18.10;99.90;;;;;;5052608;28;20463;-69
2021/09/15 02:54:31;;;;;;;15.13;12.10;;;18.10;99.90;;;;;;5053492;28;20031;-69
2021/09/15 02:56:56;;;;;;;13.98;11.75;;;18.00;99.90;;;;;;5055314;28;20027;-69
2021/09/15 02:59:22;;;;;;;15.85;13.27;;;18.00;99.90;;;;;;5056297;28;20024;-69
2021/09/15 03:01:47;;;;;;;15.82;13.02;;;18.00;99.90;;;;;;5056858;28;20022;-69
2021/09/15 03:04:13;;;;;;;13.98;12.50;;;18.00;99.90;;;;;;5057382;28;20033;-69
2021/09/15 03:06:38;;;;;;;15.32;13.73;;;18.00;99.90;;;;;;5057313;28;20430;-69
2021/09/15 03:09:04;;;;;;;14.85;13.27;;;18.10;99.90;;;;;;5057290;28;20373;-69
2021/09/15 03:11:29;;;;;;;15.40;13.75;;;18.10;99.90;;;;;;5057227;28;20459;-69
2021/09/15 03:13:55;;;;;;;14.50;12.95;;;18.10;99.90;;;;;;5056663;28;20045;-70
2021/09/15 03:16:23;;;;;;;15.55;13.93;;;18.20;99.90;;;;;;5057096;28;20462;-69
2021/09/15 03:18:48;;;;;;;15.40;13.80;;;18.20;99.90;;;;;;5057064;28;20044;-69
2021/09/15 03:21:14;;;;;;;18.05;13.02;;;18.20;99.90;;;;;;5056740;28;20471;-70
2021/09/15 03:23:39;;;;;;;19.58;15.85;;;18.20;99.90;;;;;;5056987;28;20038;-70
2021/09/15 03:26:05;;;;;;;16.00;13.27;;;18.20;99.90;;;;;;5056415;28;20025;-70
2021/09/15 03:28:30;;;;;;;15.23;12.90;;;18.30;99.90;;;;;;5039289;28;20074;-70
2021/09/15 03:30:56;;;;;;;13.27;11.45;;;18.30;99.90;;;;;;5055686;28;20079;-70
2021/09/15 03:33:21;;;;;;;14.95;12.50;;;18.30;99.90;;;;;;5055309;28;20021;-70
2021/09/15 03:35:47;;;;;;;20.55;15.30;;;18.30;99.90;;;;;;5056743;28;20044;-70
2021/09/15 03:38:12;;;;;;;16.35;14.18;;;18.30;99.90;;;;;;5055018;28;20052;-70
2021/09/15 03:40:38;;;;;;;15.85;14.15;;;18.30;99.90;;;;;;5056657;28;20075;-69
2021/09/15 03:43:03;;;;;;;19.85;16.00;;;18.40;99.90;;;;;;5055211;28;20021;-69
2021/09/15 03:45:29;;;;;;;16.27;14.27;;;18.40;99.90;;;;;;5056554;28;20434;-69
2021/09/15 03:47:54;;;;;;;17.33;13.85;;;18.40;99.90;;;;;;5056006;28;20092;-69
2021/09/15 03:50:20;;;;;;;19.50;14.23;;;18.40;99.90;;;;;;5055027;28;20021;-69
2021/09/15 03:52:45;;;;;;;21.08;15.13;;;18.40;99.90;;;;;;5056435;28;20029;-69
2021/09/15 03:55:11;;;;;;;20.27;15.00;;;18.40;99.90;;;;;;5055761;28;20037;-69
2021/09/15 03:57:37;;;;;;;18.13;15.13;;;18.40;99.90;;;;;;5054903;28;20021;-70
2021/09/15 04:00:04;;;;;;;18.33;15.63;;;18.40;99.90;;;;;;5037926;28;20027;-70
2021/09/15 04:02:30;;;;;;;18.25;15.98;;;18.40;99.90;;;;;;5055994;28;20021;-69
2021/09/15 04:04:55;;;;;;;17.65;15.38;;;18.40;99.90;;;;;;5056215;28;20083;-70
2021/09/15 04:07:21;;;;;;;14.98;13.38;;;18.40;99.90;;;;;;5054349;28;20024;-70
2021/09/15 04:09:46;;;;;;;18.48;16.10;;;18.40;99.90;;;;;;5054685;28;20033;-70
2021/09/15 04:12:12;;;;;;;18.40;16.40;;;18.40;99.90;;;;;;5056077;28;20462;-69
2021/09/15 04:14:38;;;;;;;20.33;15.82;;;18.40;99.90;;;;;;5055371;28;20049;-70
2021/09/15 04:17:04;;;;;;;18.35;16.15;;;18.40;99.90;;;;;;5054844;28;20017;-69
2021/09/15 04:19:31;;;;;;;16.52;14.52;;;18.40;99.90;;;;;;5054494;28;20079;-69
2021/09/15 04:21:57;;;;;;;17.00;15.20;;;18.40;99.90;;;;;;5054490;28;20096;-70
2021/09/15 04:24:44;;;;;;;21.13;16.52;;;18.40;99.90;;;;;;5054631;28;20519;-69
2021/09/15 04:32:39;;;;;;;16.48;14.35;;;18.40;99.90;;;;;;5055006;28;20060;-69
2021/09/15 04:35:05;;;;;;;24.92;16.27;;;18.30;99.90;;;;;;5055321;28;20060;-69
2021/09/15 04:37:31;;;;;;;18.20;15.55;;;18.30;99.90;;;;;;5054181;28;20021;-69
2021/09/15 04:39:56;;;;;;;21.98;16.83;;;18.30;99.90;;;;;;5054998;28;20028;-69
2021/09/15 04:42:22;;;;;;;18.05;16.17;;;18.30;99.90;;;;;;5055532;28;20017;-69
2021/09/15 04:44:47;;;;;;;19.13;15.88;;;18.20;99.90;;;;;;5055473;28;20378;-69
2021/09/15 04:47:13;;;;;;;22.45;18.05;;;18.20;99.90;;;;;;5055163;28;20036;-69
2021/09/15 04:49:38;;;;;;;21.05;18.48;;;18.20;99.90;;;;;;5036948;28;20389;-69
2021/09/15 04:52:04;;;;;;;20.20;17.85;;;18.10;99.90;;;;;;5053622;28;20037;-70
2021/09/15 04:54:29;;;;;;;21.15;18.15;;;18.10;99.90;;;;;;5036795;28;20021;-69
2021/09/15 04:56:55;;;;;;;24.48;18.60;;;18.10;99.90;;;;;;5053799;28;20029;-70
2021/09/15 04:59:20;;;;;;;22.83;19.30;;;18.00;99.90;;;;;;5055174;28;20063;-70
2021/09/15 05:01:46;;;;;;;23.42;20.02;;;18.00;99.90;;;;;;5053683;28;20109;-70
2021/09/15 05:04:12;;;;;;;23.35;18.25;;;18.00;99.90;;;;;;5055101;28;20033;-70
2021/09/15 05:06:37;;;;;;;24.20;20.20;;;18.00;99.90;;;;;;5054456;28;20100;-70
2021/09/15 05:09:03;;;;;;;22.85;19.55;;;18.00;99.90;;;;;;5054963;28;20079;-70
2021/09/15 05:11:29;;;;;;;22.85;18.27;;;18.00;99.90;;;;;;5054608;28;20033;-70
2021/09/15 05:13:54;;;;;;;24.40;19.77;;;18.00;99.90;;;;;;5053195;28;20421;-70
2021/09/15 05:16:20;;;;;;;28.20;20.15;;;18.00;99.90;;;;;;5054778;28;20025;-70
2021/09/15 05:18:46;;;;;;;22.85;19.27;;;17.90;99.90;;;;;;5054058;28;20056;-70
2021/09/15 05:21:11;;;;;;;31.08;21.90;;;17.90;99.90;;;;;;5054446;28;20032;-70
2021/09/15 05:23:43;;;;;;;22.10;19.08;;;17.90;99.90;;;;;;5053565;28;20092;-70
2021/09/15 05:26:08;;;;;;;28.95;20.75;;;18.00;99.90;;;;;;5054654;28;20020;-70
2021/09/15 05:28:34;;;;;;;23.83;21.02;;;17.90;99.90;;;;;;5054636;28;20481;-70
2021/09/15 05:30:59;;;;;;;28.02;21.85;;;17.90;99.90;;;;;;5036184;28;20470;-69
2021/09/15 05:33:26;;;;;;;29.52;21.27;;;18.00;99.90;;;;;;5054457;28;20445;-69
2021/09/15 05:35:51;;;;;;;25.55;21.65;;;18.00;99.90;;;;;;5054495;28;20075;-69
2021/09/15 05:38:18;;;;;;;27.90;22.92;;;18.00;99.90;;;;;;5054175;28;20017;-69
2021/09/15 05:40:43;;;;;;;24.77;20.38;;;18.00;99.90;;;;;;5052968;28;20019;-69
2021/09/15 05:43:09;;;;;;;25.70;20.70;;;18.10;99.90;;;;;;5052931;28;20096;-69
2021/09/15 05:45:35;;;;;;;24.75;21.00;;;18.10;99.90;;;;;;5036556;28;20466;-70
2021/09/15 05:48:00;;;;;;;22.17;19.35;;;18.10;99.90;;;;;;5054305;28;20108;-70
2021/09/15 05:50:26;;;;;;;21.92;19.23;;;18.10;99.90;;;;;;5053944;28;20376;-70
2021/09/15 05:52:51;;;;;;;21.13;17.67;;;18.20;99.90;;;;;;5053941;28;20041;-70
2021/09/15 05:55:17;;;;;;;23.90;19.60;;;18.20;99.90;;;;;;5052921;28;20485;-69
2021/09/15 05:57:42;;;;;;;22.33;19.05;;;18.20;99.90;;;;;;5053843;28;20112;-69
2021/09/15 06:00:08;;;;;;;26.17;20.48;;;18.20;99.90;;;;;;5054072;28;20055;-70
2021/09/15 06:02:34;;;;;;;22.88;19.85;;;18.30;99.90;;;;;;5054042;28;20355;-69
2021/09/15 06:04:59;;;;;;;24.65;21.17;;;18.30;99.90;;;;;;5053923;28;20047;-70
2021/09/15 06:07:25;;;;;;;26.73;21.70;;;18.40;99.90;;;;;;5053903;28;20029;-70
2021/09/15 06:09:50;;;;;;;28.88;23.05;;;18.40;99.90;;;;;;5028795;28;20170;-69
2021/09/15 06:12:16;;;;;;;25.80;21.55;;;18.50;99.90;;;;;;5021539;28;20083;-70
2021/09/15 06:14:41;;;;;;;26.90;22.20;;;18.50;99.90;;;;;;5040096;28;20126;-70
2021/09/15 06:17:07;;;;;;;26.30;21.58;;;18.50;99.90;;;;;;5043799;28;20022;-70
2021/09/15 06:19:33;;;;;;;25.88;22.58;;;18.60;99.90;;;;;;5037671;28;20017;-70
2021/09/15 06:21:59;;;;;;;28.88;22.85;;;18.60;99.90;;;;;;5041386;28;20025;-70
2021/09/15 06:24:24;;;;;;;27.15;22.98;;;18.70;99.90;;;;;;5036068;28;20063;-70
2021/09/15 06:26:51;;;;;;;29.75;23.65;;;18.80;99.90;;;;;;5034263;28;20104;-70
2021/09/15 06:29:17;;;;;;;28.33;22.67;;;18.90;99.90;;;;;;5037012;28;20791;-70
2021/09/15 06:31:43;;;;;;;25.25;21.25;;;19.00;99.90;;;;;;5043213;28;20030;-70
2021/09/15 06:34:09;;;;;;;24.88;21.92;;;19.10;99.90;;;;;;5037676;28;20041;-73
2021/09/15 06:36:34;;;;;;;20.90;18.45;;;19.20;99.90;;;;;;5037279;28;20104;-73
2021/09/15 06:39:00;;;;;;;28.13;20.92;;;19.30;99.90;;;;;;5036435;28;20479;-73
2021/09/15 06:41:25;;;;;;;27.02;20.88;;;19.30;99.90;;;;;;5037510;28;20419;-73
2021/09/15 06:43:52;;;;;;;27.98;21.23;;;19.30;99.90;;;;;;5025117;28;20060;-73
2021/09/15 06:46:17;;;;;;;27.65;20.98;;;19.30;99.90;;;;;;5040631;28;20541;-73
2021/09/15 06:48:43;;;;;;;29.33;20.65;;;19.40;99.90;;;;;;5032301;28;20030;-70
2021/09/15 06:51:08;;;;;;;29.88;21.08;;;19.40;99.90;;;;;;5023668;28;20418;-70
2021/09/15 06:53:34;;;;;;;27.67;21.90;;;19.30;99.90;;;;;;5035245;28;20037;-68
2021/09/15 06:55:59;;;;;;;25.15;20.98;;;19.30;99.90;;;;;;5034048;28;20030;-70
2021/09/15 06:58:25;;;;;;;27.77;21.38;;;19.30;99.90;;;;;;5036895;28;20026;-69
2021/09/15 07:00:51;;;;;;;25.27;22.17;;;19.40;99.90;;;;;;5036791;28;20029;-69
2021/09/15 07:03:16;;;;;;;24.98;22.23;;;19.40;99.90;;;;;;5037306;28;20132;-70
2021/09/15 07:05:43;;;;;;;26.00;22.88;;;19.50;99.90;;;;;;5034112;28;20040;-70
2021/09/15 07:08:10;;;;;;;27.63;21.63;;;19.50;99.90;;;;;;5035928;28;20108;-69
2021/09/15 07:10:37;;;;;;;25.58;22.58;;;19.50;99.90;;;;;;5036086;28;20027;-70
2021/09/15 07:13:03;;;;;;;28.70;22.63;;;19.50;99.90;;;;;;5041505;28;20073;-70
2021/09/15 07:15:29;;;;;;;27.33;22.27;;;19.50;99.90;;;;;;5035903;28;20398;-70
2021/09/15 07:17:54;;;;;;;26.33;22.67;;;19.50;99.90;;;;;;5034350;28;20029;-70
2021/09/15 07:20:20;;;;;;;30.10;24.10;;;19.50;99.90;;;;;;5035781;28;20018;-70
2021/09/15 07:22:46;;;;;;;29.45;22.55;;;19.50;99.90;;;;;;5044662;28;20427;-70
2021/09/15 07:25:12;;;;;;;27.67;22.55;;;19.50;99.90;;;;;;5035470;28;20029;-69
2021/09/15 07:27:38;;;;;;;24.85;22.15;;;19.60;99.90;;;;;;5036101;28;20457;-70
2021/09/15 07:30:04;;;;;;;26.38;23.50;;;19.60;99.90;;;;;;5035517;28;20061;-70
2021/09/15 07:32:30;;;;;;;26.63;21.88;;;19.60;99.90;;;;;;5038367;28;20025;-70
2021/09/15 07:34:55;;;;;;;28.08;23.88;;;19.60;99.90;;;;;;5023938;28;20499;-70
2021/09/15 07:37:21;;;;;;;28.83;22.48;;;19.70;99.90;;;;;;5009421;28;20029;-70
2021/09/15 07:39:47;;;;;;;23.67;21.13;;;19.80;99.90;;;;;;5034577;28;20025;-70
2021/09/15 07:42:12;;;;;;;30.48;22.23;;;19.80;99.90;;;;;;5034969;28;20026;-71
2021/09/15 07:44:39;;;;;;;29.92;23.23;;;19.90;99.90;;;;;;5034875;28;20032;-71
2021/09/15 07:47:04;;;;;;;28.77;23.75;;;20.00;99.90;;;;;;5017758;28;20129;-70
2021/09/15 07:49:30;;;;;;;30.35;23.75;;;20.00;99.90;;;;;;5043494;28;20056;-70
2021/09/15 07:51:56;;;;;;;28.85;23.35;;;20.00;99.90;;;;;;5034937;28;20122;-69
2021/09/15 07:54:21;;;;;;;28.90;24.02;;;20.10;99.90;;;;;;5035215;28;20041;-69
2021/09/15 07:56:47;;;;;;;26.95;23.23;;;20.20;99.90;;;;;;5034343;28;20427;-68
2021/09/15 07:59:12;;;;;;;27.60;23.27;;;20.20;99.90;;;;;;5032908;28;20552;-70
2021/09/15 08:01:38;;;;;;;30.13;23.83;;;20.30;99.90;;;;;;5018829;28;20022;-70
2021/09/15 08:04:04;;;;;;;27.17;23.45;;;20.40;99.90;;;;;;5037740;28;20395;-70
2021/09/15 08:06:29;;;;;;;26.85;22.33;;;20.50;99.90;;;;;;5033697;28;20041;-71
2021/09/15 08:08:56;;;;;;;25.63;21.20;;;20.60;99.90;;;;;;5034296;28;20025;-70
2021/09/15 08:11:22;;;;;;;26.00;22.42;;;20.60;99.90;;;;;;5034554;28;20021;-70
2021/09/15 08:13:48;;;;;;;29.88;22.20;;;20.60;99.90;;;;;;5034836;28;20388;-70
2021/09/15 08:16:13;;;;;;;27.65;24.33;;;20.60;99.90;;;;;;5034949;28;20097;-70
2021/09/15 08:18:39;;;;;;;25.90;23.00;;;20.60;99.90;;;;;;5034111;28;20076;-70
2021/09/15 08:21:06;;;;;;;30.35;23.60;;;20.60;99.90;;;;;;5033394;28;20025;-70
2021/09/15 08:23:32;;;;;;;26.02;22.80;;;20.60;99.90;;;;;;5034582;28;20053;-70
2021/09/15 08:25:57;;;;;;;25.75;22.13;;;20.60;99.90;;;;;;5034670;28;20029;-70
2021/09/15 08:28:23;;;;;;;26.52;23.02;;;20.60;99.90;;;;;;5045683;28;20025;-70
2021/09/15 08:30:49;;;;;;;27.70;22.45;;;20.70;99.90;;;;;;5034995;28;20432;-70
2021/09/15 08:33:15;;;;;;;27.65;23.05;;;20.80;99.90;;;;;;5034391;28;20111;-70
2021/09/15 08:35:41;;;;;;;23.60;21.15;;;20.90;99.90;;;;;;5045192;28;20478;-70
2021/09/15 08:38:11;;;;;;;26.45;21.90;;;21.10;99.90;;;;;;5042976;28;20437;-70
2021/09/15 08:40:37;;;;;;;24.13;20.35;;;21.20;99.90;;;;;;5039878;28;20810;-70
2021/09/15 08:43:03;;;;;;;22.73;19.83;;;21.50;99.90;;;;;;5049711;28;20067;-70
2021/09/15 08:45:29;;;;;;;22.73;20.33;;;21.70;99.90;;;;;;5034631;28;20029;-70
2021/09/15 08:47:56;;;;;;;21.67;19.35;;;21.80;99.90;;;;;;5035970;28;20478;-71
2021/09/15 08:50:22;;;;;;;23.88;20.75;;;21.90;99.90;;;;;;5048329;28;20029;-71
2021/09/15 08:52:48;;;;;;;21.92;19.17;;;22.00;99.90;;;;;;5033362;28;20033;-71
2021/09/15 08:55:14;;;;;;;23.88;18.58;;;22.00;99.90;;;;;;5019601;28;20025;-71
2021/09/15 08:57:40;;;;;;;21.90;19.60;;;22.10;99.90;;;;;;5026081;28;20028;-71
2021/09/15 09:00:09;;;;;;;20.30;18.10;;;22.20;99.90;;;;;;5043817;28;20021;-71
2021/09/15 09:02:39;;;;;;;22.35;17.30;;;22.40;99.90;;;;;;5035654;28;20022;-71
2021/09/15 09:05:06;;;;;;;20.40;17.63;;;22.30;99.90;;;;;;5039897;28;20029;-71
2021/09/15 09:07:33;;;;;;;20.73;17.25;;;22.40;99.90;;;;;;5038519;28;20106;-71
2021/09/15 09:10:06;;;;;;;24.25;18.23;;;22.30;99.90;;;;;;5031869;28;20021;-71
2021/09/15 09:12:33;;;;;;;22.73;18.60;;;22.20;99.90;;;;;;5032826;28;20033;-71
2021/09/15 09:15:12;;;;;;;19.75;16.85;;;22.10;99.90;;;;;;5041917;28;20036;-71
2021/09/15 09:17:38;;;;;;;23.90;17.63;;;22.10;99.90;;;;;;5034437;28;20029;-71
2021/09/15 09:20:28;;;;;;;20.42;17.27;;;22.00;99.90;;;;;;5006330;28;20025;-71
2021/09/15 09:23:00;;;;;;;25.17;18.00;;;22.00;99.90;;;;;;5035674;28;20029;-71
2021/09/15 09:25:27;;;;;;;19.70;16.67;;;22.00;99.90;;;;;;5033478;28;20387;-71
2021/09/15 09:27:53;;;;;;;17.42;15.40;;;22.00;99.90;;;;;;5024817;28;20436;-71
2021/09/15 09:30:37;;;;;;;18.77;14.85;;;22.00;99.90;;;;;;5043039;28;20056;-71
2021/09/15 09:33:04;;;;;;;13.50;11.52;;;22.10;99.90;;;;;;5037122;28;20050;-71
2021/09/15 09:35:39;;;;;;;13.10;9.27;;;22.00;99.90;;;;;;5039777;28;20536;-70
2021/09/15 09:38:26;;;;;;;11.98;9.60;;;22.00;99.90;;;;;;5032843;28;20025;-70
2021/09/15 09:40:59;;;;;;;13.63;9.23;;;21.90;99.90;;;;;;5037061;28;20474;-70
2021/09/15 09:43:27;;;;;;;11.23;9.02;;;21.90;99.90;;;;;;5032671;28;20033;-70
2021/09/15 09:45:52;;;;;;;12.50;8.82;;;22.00;99.90;;;;;;5043054;28;20091;-70
2021/09/15 09:48:39;;;;;;;14.20;8.40;;;22.00;99.90;;;;;;5033303;28;20467;-70
2021/09/15 09:51:28;;;;;;;15.13;8.13;;;22.00;99.90;;;;;;5036618;28;20022;-70
2021/09/15 09:54:16;;;;;;;8.98;7.03;;;22.00;99.90;;;;;;5035461;28;20084;-70
2021/09/15 09:56:43;;;;;;;11.80;7.50;;;21.90;99.90;;;;;;5032051;28;20104;-70
2021/09/15 09:59:10;;;;;;;8.98;6.95;;;21.90;99.90;;;;;;5033007;28;20025;-70
2021/09/15 10:01:41;;;;;;;11.10;7.13;;;21.90;99.90;;;;;;5032642;28;20025;-70
2021/09/15 10:04:08;;;;;;;12.05;7.57;;;21.90;99.90;;;;;;5036421;28;20035;-70
2021/09/15 10:06:36;;;;;;;15.18;8.20;;;21.80;99.90;;;;;;5036245;28;20513;-70
2021/09/15 10:09:03;;;;;;;14.48;8.13;;;21.70;99.90;;;;;;5032766;28;20135;-70
2021/09/15 10:11:29;;;;;;;11.98;7.82;;;21.50;99.90;;;;;;5032252;28;20030;-70
2021/09/15 10:13:54;;;;;;;12.80;7.70;;;21.30;99.90;;;;;;5030727;28;20132;-70
2021/09/15 10:16:23;;;;;;;11.90;8.10;;;21.30;99.90;;;;;;5032991;28;20380;-70
2021/09/15 10:18:57;;;;;;;10.32;7.72;;;21.30;99.90;;;;;;5031347;28;20022;-70
2021/09/15 10:21:26;;;;;;;15.27;7.70;;;21.30;99.90;;;;;;5043666;28;20083;-70
2021/09/15 10:23:52;;;;;;;10.52;7.75;;;21.30;99.90;;;;;;5032634;28;20087;-70
2021/09/15 10:26:36;;;;;;;10.20;7.53;;;21.30;99.90;;;;;;5044972;28;20478;-70
2021/09/15 10:29:26;;;;;;;9.82;7.18;;;21.40;99.90;;;;;;5031434;28;20026;-70
2021/09/15 10:32:02;;;;;;;11.38;7.95;;;21.50;99.90;;;;;;5032538;28;20065;-70
2021/09/15 10:40:04;;;;;;;8.70;7.32;;;21.50;99.90;;;;;;5109987;27;20311;-70
2021/09/15 10:45:24;;;;;;;9.48;7.07;;;21.70;99.90;;;;;;5069728;28;20472;-70
2021/09/15 10:47:56;;;;;;;11.48;7.40;;;21.60;99.90;;;;;;5065083;28;20092;-71
2021/09/15 10:53:22;;;;;;;11.75;7.63;;;21.50;99.90;;;;;;5105443;27;20048;-69
2021/09/15 10:55:53;;;;;;;11.38;7.57;;;21.40;99.90;;;;;;5091297;28;20119;-69
2021/09/15 10:58:25;;;;;;;10.93;7.95;;;21.40;99.90;;;;;;5108631;28;20026;-69
2021/09/15 11:01:00;;;;;;;10.93;7.40;;;21.40;99.90;;;;;;5109165;28;20024;-70
2021/09/15 11:03:30;;;;;;;14.70;8.15;;;21.40;99.90;;;;;;5106187;28;20456;-71
2021/09/15 11:05:58;;;;;;;12.90;7.68;;;21.50;99.90;;;;;;5095072;28;20047;-70
2021/09/15 11:08:34;;;;;;;13.15;7.85;;;21.50;99.90;;;;;;5101891;28;20474;-70
2021/09/15 11:11:02;;;;;;;10.63;7.40;;;21.60;99.90;;;;;;5103161;28;20028;-70
2021/09/15 11:16:36;;;;;;;16.17;10.07;;;21.30;99.90;;;;;;5109874;27;20316;-70
2021/09/15 11:19:13;;;;;;;16.08;11.80;;;20.80;99.90;;;;;;5109594;28;20028;-70
2021/09/15 11:24:30;;;;;;;19.77;14.93;;;20.10;99.90;;;;;;5111264;27;20416;-70
2021/09/15 11:27:03;;;;;;;21.38;16.17;;;19.90;99.90;;;;;;5104769;28;20073;-70
2021/09/15 11:29:42;;;;;;;26.13;17.85;;;19.90;99.90;;;;;;5110894;28;20031;-70
2021/09/15 11:32:11;;;;;;;22.85;18.48;;;19.80;99.90;;;;;;5084157;28;20029;-70
2021/09/15 11:34:41;;;;;;;21.33;17.08;;;19.80;99.90;;;;;;5076705;28;20027;-70
2021/09/15 11:37:16;;;;;;;26.58;18.25;;;19.70;99.90;;;;;;5080760;28;20099;-70
2021/09/15 11:39:42;;;;;;;22.58;18.10;;;19.70;99.90;;;;;;5088115;28;20041;-70
2021/09/15 11:42:08;;;;;;;26.10;22.27;;;19.60;99.90;;;;;;5099793;28;20445;-70
2021/09/15 11:44:33;;;;;;;28.73;22.80;;;19.60;99.90;;;;;;5104667;28;20024;-70
2021/09/15 11:47:01;;;;;;;31.20;22.75;;;19.60;99.90;;;;;;5100637;28;20028;-70
2021/09/15 11:49:32;;;;;;;27.77;23.73;;;19.70;99.90;;;;;;5087873;28;20017;-70
2021/09/15 11:52:00;;;;;;;32.35;26.73;;;19.70;99.90;;;;;;5094561;28;20020;-71
2021/09/15 11:54:27;;;;;;;27.75;24.38;;;19.80;99.90;;;;;;5090360;28;20085;-71
2021/09/15 11:57:03;;;;;;;29.80;23.50;;;19.90;99.90;;;;;;5088034;28;20091;-71
2021/09/15 11:59:29;;;;;;;29.60;24.00;;;19.80;99.90;;;;;;5084573;28;20509;-71
2021/09/15 12:01:55;;;;;;;28.48;24.77;;;19.90;99.90;;;;;;5079968;28;20060;-71
2021/09/15 12:04:22;;;;;;;30.05;23.55;;;20.00;99.90;;;;;;5086690;28;20032;-71
2021/09/15 12:06:48;;;;;;;28.48;24.50;;;19.90;99.90;;;;;;5091718;28;20427;-71
2021/09/15 12:09:14;;;;;;;34.53;23.67;;;20.00;99.90;;;;;;5087904;28;20107;-71
2021/09/15 12:11:41;;;;;;;26.45;23.10;;;19.90;99.90;;;;;;5092359;28;20052;-71
2021/09/15 12:14:09;;;;;;;29.40;24.20;;;20.00;99.90;;;;;;5093695;28;20502;-71
2021/09/15 12:16:37;;;;;;;28.75;25.20;;;20.00;99.90;;;;;;5104219;28;20028;-71
2021/09/15 12:19:12;;;;;;;31.73;27.35;;;20.00;99.90;;;;;;5100310;28;20026;-71
2021/09/15 12:21:43;;;;;;;30.40;26.50;;;20.00;99.90;;;;;;5083474;28;20485;-70
2021/09/15 12:24:08;;;;;;;31.65;27.60;;;20.10;99.90;;;;;;5089382;28;20500;-71
2021/09/15 12:26:34;;;;;;;30.70;27.13;;;20.00;99.90;;;;;;5089086;28;20036;-71
2021/09/15 12:29:05;;;;;;;34.75;27.05;;;20.00;99.90;;;;;;5088108;28;20115;-71
2021/09/15 12:31:44;;;;;;;34.47;27.95;;;20.00;99.90;;;;;;5088978;28;20024;-71
2021/09/15 12:34:10;;;;;;;35.05;29.42;;;20.10;99.90;;;;;;5083417;28;20024;-71
2021/09/15 12:36:36;;;;;;;42.47;30.20;;;20.00;99.90;;;;;;5081675;28;20032;-71
2021/09/15 12:39:12;;;;;;;38.92;28.25;;;20.10;99.90;;;;;;5084296;28;20024;-71
2021/09/15 12:41:57;;;;;;;35.00;25.13;;;20.00;99.90;;;;;;5083408;28;20103;-70
2021/09/15 12:44:38;;;;;;;30.42;24.65;;;20.00;99.90;;;;;;5081943;28;20039;-71
2021/09/15 12:47:06;;;;;;;32.72;24.45;;;20.10;99.90;;;;;;5083964;28;20112;-71
2021/09/15 12:49:34;;;;;;;35.83;24.52;;;20.20;99.90;;;;;;5083383;28;20029;-70
2021/09/15 12:52:08;;;;;;;25.55;22.27;;;20.20;99.90;;;;;;5075426;28;20012;-71